sensor_id;sensor_type;location;lat;lon;timestamp;pressure;altitude;pressure_sealevel;temperature;humidity
44751;BME280;30477;48.224;11.470;2023-02-28T00:02:19;96520.50;;;-2.61;63.50
44751;BME280;30477;48.224;11.470;2023-02-28T00:04:44;96525.59;;;-2.63;63.52
44751;BME280;30477;48.224;11.470;2023-02-28T00:07:10;96518.97;;;-2.67;63.48
44751;BME280;30477;48.224;11.470;2023-02-28T00:09:35;96519.06;;;-2.70;63.59
44751;BME280;30477;48.224;11.470;2023-02-28T00:12:00;96520.00;;;-2.73;63.50
44751;BME280;30477;48.224;11.470;2023-02-28T00:14:35;96511.63;;;-2.75;63.48
44751;BME280;30477;48.224;11.470;2023-02-28T00:17:00;96517.50;;;-2.74;63.69
44751;BME280;30477;48.224;11.470;2023-02-28T00:19:26;96514.97;;;-2.74;63.88
44751;BME280;30477;48.224;11.470;2023-02-28T00:21:51;96509.91;;;-2.74;63.71
44751;BME280;30477;48.224;11.470;2023-02-28T00:24:16;96512.47;;;-2.76;63.96
44751;BME280;30477;48.224;11.470;2023-02-28T00:26:42;96503.31;;;-2.80;63.97
44751;BME280;30477;48.224;11.470;2023-02-28T00:29:07;96511.84;;;-2.82;64.00
44751;BME280;30477;48.224;11.470;2023-02-28T00:31:32;96503.47;;;-2.84;64.10
44751;BME280;30477;48.224;11.470;2023-02-28T00:33:57;96508.69;;;-2.89;64.17
44751;BME280;30477;48.224;11.470;2023-02-28T00:36:23;96508.75;;;-2.92;64.18
44751;BME280;30477;48.224;11.470;2023-02-28T00:38:48;96502.91;;;-2.94;64.40
44751;BME280;30477;48.224;11.470;2023-02-28T00:41:14;96510.50;;;-2.94;64.53
44751;BME280;30477;48.224;11.470;2023-02-28T00:43:39;96506.38;;;-2.97;64.47
44751;BME280;30477;48.224;11.470;2023-02-28T00:46:06;96510.50;;;-2.94;64.65
44751;BME280;30477;48.224;11.470;2023-02-28T00:48:31;96512.34;;;-2.98;64.64
44751;BME280;30477;48.224;11.470;2023-02-28T00:50:57;96509.00;;;-3.00;64.82
44751;BME280;30477;48.224;11.470;2023-02-28T00:53:22;96513.34;;;-3.03;64.82
44751;BME280;30477;48.224;11.470;2023-02-28T00:55:49;96516.78;;;-3.06;65.05
44751;BME280;30477;48.224;11.470;2023-02-28T00:58:14;96518.50;;;-3.07;64.93
44751;BME280;30477;48.224;11.470;2023-02-28T01:00:40;96518.53;;;-3.08;65.17
44751;BME280;30477;48.224;11.470;2023-02-28T01:03:05;96511.81;;;-3.09;65.16
44751;BME280;30477;48.224;11.470;2023-02-28T01:05:30;96509.28;;;-3.09;65.42
44751;BME280;30477;48.224;11.470;2023-02-28T01:07:56;96506.84;;;-3.12;65.09
44751;BME280;30477;48.224;11.470;2023-02-28T01:10:21;96504.31;;;-3.12;65.16
44751;BME280;30477;48.224;11.470;2023-02-28T01:12:47;96503.44;;;-3.11;65.43
44751;BME280;30477;48.224;11.470;2023-02-28T01:15:12;96500.03;;;-3.10;65.36
44751;BME280;30477;48.224;11.470;2023-02-28T01:17:37;96503.50;;;-3.13;65.23
44751;BME280;30477;48.224;11.470;2023-02-28T01:20:03;96508.66;;;-3.17;65.41
44751;BME280;30477;48.224;11.470;2023-02-28T01:22:29;96501.97;;;-3.18;65.60
44751;BME280;30477;48.224;11.470;2023-02-28T01:24:54;96498.53;;;-3.17;65.64
44751;BME280;30477;48.224;11.470;2023-02-28T01:27:19;96500.41;;;-3.22;65.57
44751;BME280;30477;48.224;11.470;2023-02-28T01:29:45;96499.50;;;-3.21;65.60
44751;BME280;30477;48.224;11.470;2023-02-28T01:32:10;96491.09;;;-3.22;65.75
44751;BME280;30477;48.224;11.470;2023-02-28T01:34:36;96497.88;;;-3.22;65.73
44751;BME280;30477;48.224;11.470;2023-02-28T01:37:01;96491.91;;;-3.21;65.76
44751;BME280;30477;48.224;11.470;2023-02-28T01:39:28;96489.50;;;-3.24;65.79
44751;BME280;30477;48.224;11.470;2023-02-28T01:41:54;96480.38;;;-3.30;65.78
44751;BME280;30477;48.224;11.470;2023-02-28T01:44:59;96490.34;;;-3.26;66.07
44751;BME280;30477;48.224;11.470;2023-02-28T01:47:37;96491.91;;;-3.21;65.97
44751;BME280;30477;48.224;11.470;2023-02-28T01:50:07;96487.81;;;-3.26;65.88
44751;BME280;30477;48.224;11.470;2023-02-28T01:52:34;96493.75;;;-3.27;66.02
44751;BME280;30477;48.224;11.470;2023-02-28T01:55:02;96492.19;;;-3.31;66.07
44751;BME280;30477;48.224;11.470;2023-02-28T01:57:33;96487.03;;;-3.28;66.27
44751;BME280;30477;48.224;11.470;2023-02-28T02:00:06;96487.03;;;-3.28;66.24
44751;BME280;30477;48.224;11.470;2023-02-28T02:02:33;96486.28;;;-3.30;66.38
44751;BME280;30477;48.224;11.470;2023-02-28T02:05:10;96483.81;;;-3.33;66.23
44751;BME280;30477;48.224;11.470;2023-02-28T02:07:39;96483.81;;;-3.33;66.39
44751;BME280;30477;48.224;11.470;2023-02-28T02:15:17;96478.75;;;-3.33;66.59
44751;BME280;30477;48.224;11.470;2023-02-28T02:17:48;96484.00;;;-3.39;66.85
44751;BME280;30477;48.224;11.470;2023-02-28T02:26:11;96472.31;;;-3.43;67.18
44751;BME280;30477;48.224;11.470;2023-02-28T02:29:10;96475.72;;;-3.44;67.33
44751;BME280;30477;48.224;11.470;2023-02-28T02:34:45;96474.34;;;-3.54;67.32
44751;BME280;30477;48.224;11.470;2023-02-28T02:39:58;96464.28;;;-3.57;67.68
44751;BME280;30477;48.224;11.470;2023-02-28T02:42:38;96453.34;;;-3.58;67.78
44751;BME280;30477;48.224;11.470;2023-02-28T02:47:40;96457.66;;;-3.61;67.78
44751;BME280;30477;48.224;11.470;2023-02-28T02:50:13;96458.53;;;-3.62;68.04
44751;BME280;30477;48.224;11.470;2023-02-28T02:52:44;96459.41;;;-3.63;68.02
44751;BME280;30477;48.224;11.470;2023-02-28T02:55:14;96456.19;;;-3.69;67.90
44751;BME280;30477;48.224;11.470;2023-02-28T02:57:47;96457.94;;;-3.71;68.21
44751;BME280;30477;48.224;11.470;2023-02-28T03:00:17;96454.44;;;-3.67;68.21
44751;BME280;30477;48.224;11.470;2023-02-28T03:02:46;96459.50;;;-3.67;68.19
44751;BME280;30477;48.224;11.470;2023-02-28T03:05:19;96458.69;;;-3.67;68.30
44751;BME280;30477;48.224;11.470;2023-02-28T03:07:45;96461.31;;;-3.72;68.62
44751;BME280;30477;48.224;11.470;2023-02-28T03:10:30;96459.56;;;-3.70;68.72
44751;BME280;30477;48.224;11.470;2023-02-28T03:15:58;96456.09;;;-3.65;68.88
44751;BME280;30477;48.224;11.470;2023-02-28T03:18:40;96462.03;;;-3.67;68.95
44751;BME280;30477;48.224;11.470;2023-02-28T03:21:14;96458.56;;;-3.64;69.16
44751;BME280;30477;48.224;11.470;2023-02-28T03:23:54;96463.56;;;-3.61;69.46
44751;BME280;30477;48.224;11.470;2023-02-28T03:26:22;96466.13;;;-3.62;69.08
44751;BME280;30477;48.224;11.470;2023-02-28T03:29:15;96462.63;;;-3.58;69.26
44751;BME280;30477;48.224;11.470;2023-02-28T03:32:29;96461.56;;;-3.51;69.40
44751;BME280;30477;48.224;11.470;2023-02-28T03:34:42;96469.88;;;-3.46;69.26
44751;BME280;30477;48.224;11.470;2023-02-28T03:37:16;96470.06;;;-3.52;69.18
44751;BME280;30477;48.224;11.470;2023-02-28T03:39:47;96469.16;;;-3.51;69.48
44751;BME280;30477;48.224;11.470;2023-02-28T03:42:19;96463.91;;;-3.43;69.45
44751;BME280;30477;48.224;11.470;2023-02-28T03:44:54;96470.59;;;-3.42;69.58
44751;BME280;30477;48.224;11.470;2023-02-28T03:47:26;96471.38;;;-3.40;69.70
44751;BME280;30477;48.224;11.470;2023-02-28T03:52:19;96466.44;;;-3.43;69.68
44751;BME280;30477;48.224;11.470;2023-02-28T03:54:52;96472.31;;;-3.43;69.80
44751;BME280;30477;48.224;11.470;2023-02-28T03:57:50;96467.16;;;-3.40;69.87
44751;BME280;30477;48.224;11.470;2023-02-28T04:00:28;96476.44;;;-3.40;70.11
44751;BME280;30477;48.224;11.470;2023-02-28T04:02:55;96471.44;;;-3.42;70.04
44751;BME280;30477;48.224;11.470;2023-02-28T04:05:21;96468.81;;;-3.39;69.80
44751;BME280;30477;48.224;11.470;2023-02-28T04:07:47;96473.91;;;-3.40;69.94
44751;BME280;30477;48.224;11.470;2023-02-28T04:10:14;96472.13;;;-3.37;70.01
44751;BME280;30477;48.224;11.470;2023-02-28T04:12:40;96477.19;;;-3.37;69.94
44751;BME280;30477;48.224;11.470;2023-02-28T04:15:06;96482.25;;;-3.37;70.10
44751;BME280;30477;48.224;11.470;2023-02-28T04:17:31;96479.66;;;-3.34;70.12
44751;BME280;30477;48.224;11.470;2023-02-28T04:19:57;96487.97;;;-3.30;70.06
44751;BME280;30477;48.224;11.470;2023-02-28T04:22:22;96497.25;;;-3.31;69.99
44751;BME280;30477;48.224;11.470;2023-02-28T04:24:51;96488.03;;;-3.32;70.16
44751;BME280;30477;48.224;11.470;2023-02-28T04:27:16;96493.88;;;-3.30;70.15
44751;BME280;30477;48.224;11.470;2023-02-28T04:29:41;96497.16;;;-3.28;70.03
44751;BME280;30477;48.224;11.470;2023-02-28T04:32:09;96505.53;;;-3.26;70.00
44751;BME280;30477;48.224;11.470;2023-02-28T04:34:35;96497.81;;;-3.21;70.11
44751;BME280;30477;48.224;11.470;2023-02-28T04:37:01;96508.75;;;-3.19;69.88
44751;BME280;30477;48.224;11.470;2023-02-28T04:39:28;96502.03;;;-3.21;69.95
44751;BME280;30477;48.224;11.470;2023-02-28T04:41:55;96505.47;;;-3.22;70.14
44751;BME280;30477;48.224;11.470;2023-02-28T04:44:20;96498.66;;;-3.20;70.09
44751;BME280;30477;48.224;11.470;2023-02-28T04:46:47;96495.28;;;-3.21;69.94
44751;BME280;30477;48.224;11.470;2023-02-28T04:49:13;96501.22;;;-3.22;69.71
44751;BME280;30477;48.224;11.470;2023-02-28T04:51:39;96498.00;;;-3.27;69.75
44751;BME280;30477;48.224;11.470;2023-02-28T04:54:05;96504.63;;;-3.23;70.01
44751;BME280;30477;48.224;11.470;2023-02-28T04:56:31;96507.97;;;-3.21;69.78
44751;BME280;30477;48.224;11.470;2023-02-28T04:58:56;96502.78;;;-3.18;69.78
44751;BME280;30477;48.224;11.470;2023-02-28T05:01:26;96502.00;;;-3.20;69.79
44751;BME280;30477;48.224;11.470;2023-02-28T05:03:54;96506.09;;;-3.16;69.67
44751;BME280;30477;48.224;11.470;2023-02-28T05:06:21;96511.81;;;-3.09;69.61
44751;BME280;30477;48.224;11.470;2023-02-28T05:08:48;96511.81;;;-3.09;69.59
44751;BME280;30477;48.224;11.470;2023-02-28T05:11:19;96506.94;;;-3.15;69.37
44751;BME280;30477;48.224;11.470;2023-02-28T05:13:45;96512.88;;;-3.16;69.65
44751;BME280;30477;48.224;11.470;2023-02-28T05:16:11;96509.59;;;-3.20;69.71
44751;BME280;30477;48.224;11.470;2023-02-28T05:18:37;96515.59;;;-3.22;69.60
44751;BME280;30477;48.224;11.470;2023-02-28T05:21:02;96525.59;;;-3.19;69.91
44751;BME280;30477;48.224;11.470;2023-02-28T05:23:28;96515.41;;;-3.16;69.70
44751;BME280;30477;48.224;11.470;2023-02-28T05:25:54;96525.44;;;-3.13;69.78
44751;BME280;30477;48.224;11.470;2023-02-28T05:28:20;96533.19;;;-3.19;69.61
44751;BME280;30477;48.224;11.470;2023-02-28T05:30:45;96529.03;;;-3.20;69.66
44751;BME280;30477;48.224;11.470;2023-02-28T05:33:11;96524.78;;;-3.20;69.74
44751;BME280;30477;48.224;11.470;2023-02-28T05:35:41;96523.88;;;-3.17;69.70
44751;BME280;30477;48.224;11.470;2023-02-28T05:38:08;96527.28;;;-3.18;69.77
44751;BME280;30477;48.224;11.470;2023-02-28T05:40:33;96518.75;;;-3.16;69.77
44751;BME280;30477;48.224;11.470;2023-02-28T05:42:59;96518.78;;;-3.17;69.58
44751;BME280;30477;48.224;11.470;2023-02-28T05:45:24;96514.59;;;-3.17;69.90
44751;BME280;30477;48.224;11.470;2023-02-28T05:47:53;96520.47;;;-3.16;69.78
44751;BME280;30477;48.224;11.470;2023-02-28T05:50:19;96528.84;;;-3.14;69.98
44751;BME280;30477;48.224;11.470;2023-02-28T05:52:44;96527.19;;;-3.15;69.83
44751;BME280;30477;48.224;11.470;2023-02-28T05:55:13;96530.47;;;-3.12;69.64
44751;BME280;30477;48.224;11.470;2023-02-28T05:57:39;96534.78;;;-3.15;69.83
44751;BME280;30477;48.224;11.470;2023-02-28T06:00:04;96525.53;;;-3.16;69.74
44751;BME280;30477;48.224;11.470;2023-02-28T06:02:30;96533.13;;;-3.16;69.79
44751;BME280;30477;48.224;11.470;2023-02-28T06:04:55;96524.56;;;-3.12;69.79
44751;BME280;30477;48.224;11.470;2023-02-28T06:07:20;96531.19;;;-3.08;69.71
44751;BME280;30477;48.224;11.470;2023-02-28T06:09:47;96544.00;;;-3.13;69.54
44751;BME280;30477;48.224;11.470;2023-02-28T06:12:12;96542.47;;;-3.18;69.67
44751;BME280;30477;48.224;11.470;2023-02-28T06:14:38;96537.31;;;-3.15;69.59
44751;BME280;30477;48.224;11.470;2023-02-28T06:17:05;96542.19;;;-3.09;69.66
44751;BME280;30477;48.224;11.470;2023-02-28T06:19:30;96555.81;;;-3.13;69.61
44751;BME280;30477;48.224;11.470;2023-02-28T06:21:56;96550.88;;;-3.18;69.46
44751;BME280;30477;48.224;11.470;2023-02-28T06:24:24;96549.19;;;-3.17;69.61
44751;BME280;30477;48.224;11.470;2023-02-28T06:26:49;96555.13;;;-3.18;69.53
44751;BME280;30477;48.224;11.470;2023-02-28T06:29:15;96555.91;;;-3.16;69.49
44751;BME280;30477;48.224;11.470;2023-02-28T06:31:42;96555.13;;;-3.18;69.48
44751;BME280;30477;48.224;11.470;2023-02-28T06:34:09;96549.19;;;-3.17;69.52
44751;BME280;30477;48.224;11.470;2023-02-28T06:36:37;96546.75;;;-3.20;69.48
44751;BME280;30477;48.224;11.470;2023-02-28T06:39:02;96548.47;;;-3.21;69.55
44751;BME280;30477;48.224;11.470;2023-02-28T06:41:28;96562.72;;;-3.18;69.48
44751;BME280;30477;48.224;11.470;2023-02-28T06:43:53;96562.00;;;-3.23;69.49
44751;BME280;30477;48.224;11.470;2023-02-28T06:46:19;96567.22;;;-3.28;69.59
44751;BME280;30477;48.224;11.470;2023-02-28T06:48:44;96570.53;;;-3.26;69.66
44751;BME280;30477;48.224;11.470;2023-02-28T06:51:12;96573.84;;;-3.24;69.78
44751;BME280;30477;48.224;11.470;2023-02-28T06:53:39;96575.56;;;-3.24;69.67
44751;BME280;30477;48.224;11.470;2023-02-28T06:56:09;96577.97;;;-3.21;69.63
44751;BME280;30477;48.224;11.470;2023-02-28T06:58:35;96586.28;;;-3.16;69.76
44751;BME280;30477;48.224;11.470;2023-02-28T07:01:01;96584.56;;;-3.14;69.73
44751;BME280;30477;48.224;11.470;2023-02-28T07:03:27;96586.13;;;-3.10;69.61
44751;BME280;30477;48.224;11.470;2023-02-28T07:05:52;96592.66;;;-3.03;69.62
44751;BME280;30477;48.224;11.470;2023-02-28T07:08:18;96597.03;;;-3.08;69.38
44751;BME280;30477;48.224;11.470;2023-02-28T07:10:43;96599.63;;;-3.11;69.37
44751;BME280;30477;48.224;11.470;2023-02-28T07:13:09;96595.53;;;-3.15;69.30
44751;BME280;30477;48.224;11.470;2023-02-28T07:15:36;96595.53;;;-3.15;69.35
44751;BME280;30477;48.224;11.470;2023-02-28T07:18:02;96592.94;;;-3.12;69.20
44751;BME280;30477;48.224;11.470;2023-02-28T07:20:28;96592.81;;;-3.09;69.38
44751;BME280;30477;48.224;11.470;2023-02-28T07:22:54;96597.88;;;-3.09;69.15
44751;BME280;30477;48.224;11.470;2023-02-28T07:25:26;96598.84;;;-3.13;69.13
44751;BME280;30477;48.224;11.470;2023-02-28T07:27:53;96595.47;;;-3.12;69.19
44751;BME280;30477;48.224;11.470;2023-02-28T07:30:19;96589.50;;;-3.11;69.33
44751;BME280;30477;48.224;11.470;2023-02-28T07:32:44;96601.31;;;-3.10;69.28
44751;BME280;30477;48.224;11.470;2023-02-28T07:35:10;96602.81;;;-3.04;69.23
44751;BME280;30477;48.224;11.470;2023-02-28T07:37:35;96596.25;;;-3.10;69.17
44751;BME280;30477;48.224;11.470;2023-02-28T07:40:05;96594.50;;;-3.08;69.08
44751;BME280;30477;48.224;11.470;2023-02-28T07:42:37;96609.53;;;-3.02;69.20
44751;BME280;30477;48.224;11.470;2023-02-28T07:45:06;96606.94;;;-3.00;69.01
44751;BME280;30477;48.224;11.470;2023-02-28T07:47:32;96608.78;;;-3.06;69.12
44751;BME280;30477;48.224;11.470;2023-02-28T07:49:57;96603.59;;;-3.02;68.90
44751;BME280;30477;48.224;11.470;2023-02-28T07:52:23;96596.78;;;-3.00;69.05
44751;BME280;30477;48.224;11.470;2023-02-28T07:54:50;96598.50;;;-3.01;69.04
44751;BME280;30477;48.224;11.470;2023-02-28T07:57:16;96602.78;;;-3.03;68.84
44751;BME280;30477;48.224;11.470;2023-02-28T07:59:41;96590.91;;;-3.01;68.80
44751;BME280;30477;48.224;11.470;2023-02-28T08:02:18;96584.81;;;-2.94;68.77
44751;BME280;30477;48.224;11.470;2023-02-28T08:04:44;96599.94;;;-2.92;68.63
44751;BME280;30477;48.224;11.470;2023-02-28T08:07:12;96599.28;;;-2.99;68.59
44751;BME280;30477;48.224;11.470;2023-02-28T08:09:39;96597.53;;;-2.97;68.54
44751;BME280;30477;48.224;11.470;2023-02-28T08:12:04;96607.59;;;-2.94;68.67
44751;BME280;30477;48.224;11.470;2023-02-28T08:14:29;96608.25;;;-2.87;68.59
44751;BME280;30477;48.224;11.470;2023-02-28T08:16:55;96609.06;;;-2.87;68.26
44751;BME280;30477;48.224;11.470;2023-02-28T08:19:20;96625.22;;;-2.91;68.43
44751;BME280;30477;48.224;11.470;2023-02-28T08:21:46;96620.25;;;-2.94;68.34
44751;BME280;30477;48.224;11.470;2023-02-28T08:24:11;96623.63;;;-2.93;68.47
44751;BME280;30477;48.224;11.470;2023-02-28T08:26:36;96618.41;;;-2.89;68.42
44751;BME280;30477;48.224;11.470;2023-02-28T08:29:02;96632.63;;;-2.83;68.37
44751;BME280;30477;48.224;11.470;2023-02-28T08:31:27;96621.69;;;-2.85;68.09
44751;BME280;30477;48.224;11.470;2023-02-28T08:33:52;96635.97;;;-2.82;67.95
44751;BME280;30477;48.224;11.470;2023-02-28T08:36:20;96640.94;;;-2.79;67.94
44751;BME280;30477;48.224;11.470;2023-02-28T08:38:46;96633.44;;;-2.82;68.06
44751;BME280;30477;48.224;11.470;2023-02-28T08:41:12;96636.59;;;-2.74;67.91
44751;BME280;30477;48.224;11.470;2023-02-28T08:43:38;96641.66;;;-2.74;68.10
44751;BME280;30477;48.224;11.470;2023-02-28T08:46:04;96640.69;;;-2.70;67.67
44751;BME280;30477;48.224;11.470;2023-02-28T08:48:31;96644.06;;;-2.71;67.68
44751;BME280;30477;48.224;11.470;2023-02-28T08:51:02;96643.25;;;-2.72;67.60
44751;BME280;30477;48.224;11.470;2023-02-28T08:53:28;96633.25;;;-2.76;67.51
44751;BME280;30477;48.224;11.470;2023-02-28T08:56:04;96631.56;;;-2.76;67.48
44751;BME280;30477;48.224;11.470;2023-02-28T08:58:30;96633.13;;;-2.72;67.32
44751;BME280;30477;48.224;11.470;2023-02-28T09:00:55;96638.22;;;-2.73;67.62
44751;BME280;30477;48.224;11.470;2023-02-28T09:03:22;96644.81;;;-2.68;67.43
44751;BME280;30477;48.224;11.470;2023-02-28T09:05:55;96649.06;;;-2.68;67.48
44751;BME280;30477;48.224;11.470;2023-02-28T09:08:21;96638.94;;;-2.68;67.23
44751;BME280;30477;48.224;11.470;2023-02-28T09:10:47;96626.94;;;-2.63;67.54
44751;BME280;30477;48.224;11.470;2023-02-28T09:13:12;96636.09;;;-2.57;67.51
44751;BME280;30477;48.224;11.470;2023-02-28T09:15:38;96642.75;;;-2.55;67.26
44751;BME280;30477;48.224;11.470;2023-02-28T09:18:04;96646.84;;;-2.51;67.42
44751;BME280;30477;48.224;11.470;2023-02-28T09:20:29;96645.91;;;-2.47;67.28
44751;BME280;30477;48.224;11.470;2023-02-28T09:22:54;96654.38;;;-2.48;66.94
44751;BME280;30477;48.224;11.470;2023-02-28T09:25:20;96641.56;;;-2.43;67.08
44751;BME280;30477;48.224;11.470;2023-02-28T09:27:45;96649.00;;;-2.37;67.05
44751;BME280;30477;48.224;11.470;2023-02-28T09:30:11;96647.94;;;-2.31;66.98
44751;BME280;30477;48.224;11.470;2023-02-28T09:32:37;96646.66;;;-2.16;67.06
44751;BME280;30477;48.224;11.470;2023-02-28T09:35:02;96662.34;;;-2.03;66.64
44751;BME280;30477;48.224;11.470;2023-02-28T09:37:28;96667.88;;;-2.19;66.27
44751;BME280;30477;48.224;11.470;2023-02-28T09:39:54;96674.78;;;-2.24;65.99
44751;BME280;30477;48.224;11.470;2023-02-28T09:42:25;96675.63;;;-2.23;66.06
44751;BME280;30477;48.224;11.470;2023-02-28T09:44:55;96668.84;;;-2.23;66.01
44751;BME280;30477;48.224;11.470;2023-02-28T09:47:38;96663.25;;;-2.06;66.28
44751;BME280;30477;48.224;11.470;2023-02-28T09:52:51;96668.09;;;-1.72;65.88
44751;BME280;30477;48.224;11.470;2023-02-28T09:57:49;96673.00;;;-1.67;65.23
44751;BME280;30477;48.224;11.470;2023-02-28T10:00:23;96678.63;;;-1.57;64.95
44751;BME280;30477;48.224;11.470;2023-02-28T10:06:02;96672.22;;;-1.44;65.13
44751;BME280;30477;48.224;11.470;2023-02-28T10:08:40;96690.25;;;-1.27;64.49
44751;BME280;30477;48.224;11.470;2023-02-28T10:11:16;96676.78;;;-1.29;64.33
44751;BME280;30477;48.224;11.470;2023-02-28T10:18:50;96673.44;;;-1.06;63.70
44751;BME280;30477;48.224;11.470;2023-02-28T10:21:30;96679.53;;;-0.86;63.68
44751;BME280;30477;48.224;11.470;2023-02-28T10:24:03;96671.63;;;-0.78;63.26
44751;BME280;30477;48.224;11.470;2023-02-28T10:26:31;96685.44;;;-0.62;63.13
44751;BME280;30477;48.224;11.470;2023-02-28T10:28:57;96687.63;;;-0.53;62.85
44751;BME280;30477;48.224;11.470;2023-02-28T10:31:22;96679.97;;;-0.51;62.36
44751;BME280;30477;48.224;11.470;2023-02-28T10:33:48;96686.00;;;-0.54;62.01
44751;BME280;30477;48.224;11.470;2023-02-28T10:36:16;96688.09;;;-0.65;62.08
44751;BME280;30477;48.224;11.470;2023-02-28T10:38:43;96684.44;;;-0.58;61.65
44751;BME280;30477;48.224;11.470;2023-02-28T10:41:10;96684.31;;;-0.55;61.71
44751;BME280;30477;48.224;11.470;2023-02-28T10:43:38;96680.78;;;-0.51;61.87
44751;BME280;30477;48.224;11.470;2023-02-28T10:46:10;96686.41;;;-0.43;61.63
44751;BME280;30477;48.224;11.470;2023-02-28T10:51:04;96686.91;;;-0.11;61.52
44751;BME280;30477;48.224;11.470;2023-02-28T10:53:39;96698.09;;;-0.15;61.16
44751;BME280;30477;48.224;11.470;2023-02-28T11:01:36;96688.00;;;-0.16;61.05
44751;BME280;30477;48.224;11.470;2023-02-28T11:04:03;96686.81;;;-0.08;60.51
44751;BME280;30477;48.224;11.470;2023-02-28T11:06:30;96687.91;;;0.07;60.81
44751;BME280;30477;48.224;11.470;2023-02-28T11:09:03;96691.56;;;0.22;60.72
44751;BME280;30477;48.224;11.470;2023-02-28T11:11:40;96700.47;;;0.12;60.03
44751;BME280;30477;48.224;11.470;2023-02-28T11:14:27;96686.84;;;0.13;60.30
44751;BME280;30477;48.224;11.470;2023-02-28T11:16:54;96689.31;;;0.36;60.13
44751;BME280;30477;48.224;11.470;2023-02-28T11:19:37;96694.75;;;0.27;59.90
44751;BME280;30477;48.224;11.470;2023-02-28T11:22:04;96696.53;;;0.25;59.58
44751;BME280;30477;48.224;11.470;2023-02-28T11:24:43;96691.44;;;0.25;59.80
44751;BME280;30477;48.224;11.470;2023-02-28T11:29:57;96690.41;;;0.51;59.60
44751;BME280;30477;48.224;11.470;2023-02-28T11:32:24;96686.63;;;0.19;59.08
44751;BME280;30477;48.224;11.470;2023-02-28T11:37:34;96678.44;;;0.53;60.00
44751;BME280;30477;48.224;11.470;2023-02-28T11:40:00;96674.41;;;0.68;59.31
44751;BME280;30477;48.224;11.470;2023-02-28T11:48:21;96658.38;;;1.06;58.87
44751;BME280;30477;48.224;11.470;2023-02-28T12:02:17;96659.63;;;1.16;57.49
44751;BME280;30477;48.224;11.470;2023-02-28T12:04:53;96648.47;;;1.18;58.04
44751;BME280;30477;48.224;11.470;2023-02-28T12:07:34;96648.19;;;1.06;57.83
44751;BME280;30477;48.224;11.470;2023-02-28T12:13:23;96650.19;;;0.99;57.63
44751;BME280;30477;48.224;11.470;2023-02-28T12:21:31;96642.00;;;1.30;57.42
44751;BME280;30477;48.224;11.470;2023-02-28T12:26:46;96632.06;;;1.43;57.71
44751;BME280;30477;48.224;11.470;2023-02-28T12:29:22;96630.84;;;1.33;57.02
44751;BME280;30477;48.224;11.470;2023-02-28T12:34:30;96631.78;;;1.49;57.26
44751;BME280;30477;48.224;11.470;2023-02-28T12:36:58;96638.84;;;1.61;57.40
44751;BME280;30477;48.224;11.470;2023-02-28T12:39:30;96627.78;;;1.44;56.69
44751;BME280;30477;48.224;11.470;2023-02-28T12:42:05;96628.34;;;1.50;57.44
44751;BME280;30477;48.224;11.470;2023-02-28T12:44:59;96624.91;;;1.51;57.28
44751;BME280;30477;48.224;11.470;2023-02-28T12:47:27;96622.41;;;1.50;57.25
44751;BME280;30477;48.224;11.470;2023-02-28T12:50:06;96616.50;;;1.49;57.14
44751;BME280;30477;48.224;11.470;2023-02-28T12:52:43;96609.72;;;1.48;57.10
44751;BME280;30477;48.224;11.470;2023-02-28T12:55:18;96608.75;;;1.32;56.86
44751;BME280;30477;48.224;11.470;2023-02-28T12:57:50;96612.88;;;1.34;56.72
44751;BME280;30477;48.224;11.470;2023-02-28T13:00:25;96615.81;;;1.27;56.91
44751;BME280;30477;48.224;11.470;2023-02-28T13:05:45;96611.81;;;1.21;56.93
44751;BME280;30477;48.224;11.470;2023-02-28T13:10:56;96615.81;;;1.27;57.36
44751;BME280;30477;48.224;11.470;2023-02-28T13:13:24;96611.25;;;1.33;57.45
44751;BME280;30477;48.224;11.470;2023-02-28T13:18:48;96604.69;;;1.28;56.91
44751;BME280;30477;48.224;11.470;2023-02-28T13:21:27;96606.56;;;1.43;56.75
44751;BME280;30477;48.224;11.470;2023-02-28T13:34:37;96616.75;;;1.62;56.65
44751;BME280;30477;48.224;11.470;2023-02-28T13:39:56;96631.19;;;1.61;56.32
44751;BME280;30477;48.224;11.470;2023-02-28T13:47:34;96617.06;;;1.73;56.08
44751;BME280;30477;48.224;11.470;2023-02-28T14:04:46;96625.69;;;1.71;55.69
44751;BME280;30477;48.224;11.470;2023-02-28T14:07:23;96614.25;;;1.60;55.44
44751;BME280;30477;48.224;11.470;2023-02-28T14:10:30;96616.13;;;1.57;55.87
44751;BME280;30477;48.224;11.470;2023-02-28T14:18:34;96616.94;;;1.57;56.02
44751;BME280;30477;48.224;11.470;2023-02-28T14:21:16;96616.13;;;1.57;56.25
44751;BME280;30477;48.224;11.470;2023-02-28T14:23:56;96607.34;;;1.62;56.17
44751;BME280;30477;48.224;11.470;2023-02-28T14:37:59;96634.84;;;1.75;56.02
44751;BME280;30477;48.224;11.470;2023-02-28T14:40:33;96600.19;;;1.71;55.95
44751;BME280;30477;48.224;11.470;2023-02-28T14:43:02;96615.56;;;1.69;55.79
44751;BME280;30477;48.224;11.470;2023-02-28T14:45:31;96613.69;;;1.73;55.98
44751;BME280;30477;48.224;11.470;2023-02-28T14:47:58;96603.19;;;1.79;56.08
44751;BME280;30477;48.224;11.470;2023-02-28T14:50:29;96611.72;;;1.78;56.15
44751;BME280;30477;48.224;11.470;2023-02-28T14:52:55;96616.03;;;1.77;56.14
44751;BME280;30477;48.224;11.470;2023-02-28T14:55:30;96603.19;;;1.79;56.26
44751;BME280;30477;48.224;11.470;2023-02-28T14:58:02;96598.84;;;1.81;56.22
44751;BME280;30477;48.224;11.470;2023-02-28T15:00:40;96604.53;;;1.86;56.38
44751;BME280;30477;48.224;11.470;2023-02-28T15:03:23;96603.44;;;1.92;56.52
44751;BME280;30477;48.224;11.470;2023-02-28T15:05:57;96599.00;;;1.95;56.18
44751;BME280;30477;48.224;11.470;2023-02-28T15:08:24;96604.84;;;1.97;56.04
44751;BME280;30477;48.224;11.470;2023-02-28T15:11:17;96604.13;;;1.95;56.08
44751;BME280;30477;48.224;11.470;2023-02-28T15:13:52;96621.81;;;1.98;55.86
44751;BME280;30477;48.224;11.470;2023-02-28T15:16:22;96607.56;;;1.94;55.84
44751;BME280;30477;48.224;11.470;2023-02-28T15:18:57;96604.13;;;1.95;55.82
44751;BME280;30477;48.224;11.470;2023-02-28T15:21:29;96600.66;;;1.96;55.78
44751;BME280;30477;48.224;11.470;2023-02-28T15:24:09;96603.97;;;1.98;55.80
44751;BME280;30477;48.224;11.470;2023-02-28T15:26:39;96610.88;;;1.96;55.63